createdAt,value
2019-02-14T00:00:49.906Z,102558.75
2019-02-14T00:03:20.359Z,102567.57
2019-02-14T00:05:50.683Z,102564.87
2019-02-14T00:08:21.257Z,102569.28
2019-02-14T00:10:51.517Z,102582.53
2019-02-14T00:13:22.990Z,102592.25
2019-02-14T00:15:53.726Z,102593.98
2019-02-14T00:18:24.015Z,102599.71
2019-02-14T00:20:55.414Z,102602.77
2019-02-14T00:23:25.718Z,102608.50
2019-02-14T00:25:55.980Z,102603.25
2019-02-14T00:28:26.239Z,102604.16
2019-02-14T00:30:56.669Z,102608.53
2019-02-14T00:33:26.920Z,102616.07
2019-02-14T00:35:57.249Z,102613.88
2019-02-14T00:38:27.506Z,102618.25
2019-02-14T00:40:57.772Z,102612.55
2019-02-14T00:43:28.101Z,102606.37
2019-02-14T00:45:58.359Z,102603.33
2019-02-14T00:48:28.639Z,102592.73
2019-02-14T00:50:58.966Z,102594.92
2019-02-14T00:53:29.412Z,102587.85
2019-02-14T00:55:59.714Z,102584.80
2019-02-14T00:58:30.055Z,102582.62
2019-02-14T01:01:00.317Z,102591.02
2019-02-14T01:03:30.624Z,102597.65
2019-02-14T01:06:00.977Z,102599.90
2019-02-14T01:08:31.661Z,102596.36
2019-02-14T01:11:01.910Z,102596.83
2019-02-14T01:13:32.952Z,102592.87
2019-02-14T01:16:03.228Z,102599.05
2019-02-14T01:18:33.540Z,102600.36
2019-02-14T01:21:03.768Z,102607.89
2019-02-14T01:23:34.132Z,102606.58
2019-02-14T01:26:04.418Z,102612.77
2019-02-14T01:28:34.758Z,102607.44
2019-02-14T01:31:05.214Z,102604.79
2019-02-14T01:33:36.650Z,102604.79
2019-02-14T01:36:06.932Z,102594.59
2019-02-14T01:38:37.184Z,102602.56
2019-02-14T01:41:07.459Z,102596.80
2019-02-14T01:43:37.778Z,102595.92
2019-02-14T01:46:08.317Z,102595.50
2019-02-14T01:48:38.573Z,102597.27
2019-02-14T01:51:08.862Z,102597.72
2019-02-14T01:53:39.124Z,102598.59
2019-02-14T01:56:09.450Z,102598.59
2019-02-14T01:58:39.697Z,102595.50
2019-02-14T02:01:09.972Z,102596.37
2019-02-14T02:03:40.289Z,102596.80
2019-02-14T02:06:10.565Z,102595.49
2019-02-14T02:08:40.825Z,102604.73
2019-02-14T02:11:11.159Z,102603.86
2019-02-14T02:13:42.261Z,102609.16
2019-02-14T02:16:12.581Z,102603.84
2019-02-14T02:18:42.930Z,102603.39
2019-02-14T02:21:13.191Z,102599.83
2019-02-14T02:23:43.493Z,102600.75
2019-02-14T02:26:14.733Z,102589.22
2019-02-14T02:28:45.000Z,102588.35
2019-02-14T02:31:15.306Z,102583.50
2019-02-14T02:33:45.638Z,102584.38
2019-02-14T02:36:15.906Z,102589.70
2019-02-14T02:38:46.212Z,102587.05
2019-02-14T02:41:16.468Z,102594.16
2019-02-14T02:43:46.827Z,102597.68
2019-02-14T02:46:17.095Z,102601.67
2019-02-14T02:48:47.364Z,102610.02
2019-02-14T02:51:17.637Z,102612.21
2019-02-14T02:53:47.896Z,102611.30
2019-02-14T02:56:18.159Z,102609.11
2019-02-14T02:58:48.419Z,102612.59
2019-02-14T03:01:18.744Z,102608.16
2019-02-14T03:03:49.083Z,102615.65
2019-02-14T03:06:19.339Z,102616.08
2019-02-14T03:08:49.591Z,102622.72
2019-02-14T03:11:19.849Z,102624.89
2019-02-14T03:13:50.959Z,102630.66
2019-02-14T03:16:21.223Z,102628.84
2019-02-14T03:18:51.512Z,102637.27
2019-02-14T03:21:21.819Z,102634.61
2019-02-14T03:23:52.077Z,102642.09
2019-02-14T03:26:22.393Z,102637.24
2019-02-14T03:28:52.655Z,102644.30
2019-02-14T03:31:22.907Z,102654.93
2019-02-14T03:33:53.171Z,102654.05
2019-02-14T03:36:23.454Z,102654.48
2019-02-14T03:38:53.726Z,102658.89
2019-02-14T03:41:23.974Z,102658.02
2019-02-14T03:43:54.270Z,102653.16
2019-02-14T03:46:24.527Z,102651.82
2019-02-14T03:48:54.783Z,102655.81
2019-02-14T03:51:25.039Z,102653.13
2019-02-14T03:53:55.292Z,102653.09
2019-02-14T03:56:25.576Z,102649.53
2019-02-14T03:58:55.844Z,102650.89
2019-02-14T04:01:26.127Z,102657.02
2019-02-14T04:03:57.353Z,102662.36
2019-02-14T04:06:27.860Z,102667.64
2019-02-14T04:08:58.127Z,102674.74
2019-02-14T04:11:28.390Z,102667.22
2019-02-14T04:13:59.633Z,102668.13
2019-02-14T04:16:30.068Z,102667.70
2019-02-14T04:19:00.329Z,102669.48
2019-02-14T04:21:30.585Z,102669.94
2019-02-14T04:24:00.861Z,102671.27
2019-02-14T04:26:31.112Z,102672.17
2019-02-14T04:29:01.387Z,102668.19
2019-02-14T04:31:31.643Z,102680.17
2019-02-14T04:34:01.889Z,102680.17
2019-02-14T04:36:35.998Z,102679.27
2019-02-14T04:39:05.085Z,102686.81
2019-02-14T04:41:35.421Z,102678.84
2019-02-14T04:44:05.694Z,102680.17
2019-02-14T04:46:35.953Z,102686.81
2019-02-14T04:49:06.222Z,102684.58
2019-02-14T04:51:36.491Z,102692.55
2019-02-14T04:54:06.739Z,102692.55
2019-02-14T04:56:37.020Z,102692.55
2019-02-14T04:59:07.289Z,102696.08
2019-02-14T05:01:37.550Z,102700.97
2019-02-14T05:04:07.807Z,102703.63
2019-02-14T05:06:44.207Z,102705.41
2019-02-14T05:09:10.189Z,102705.41
2019-02-14T05:11:40.460Z,102707.61
2019-02-14T05:14:10.717Z,102709.37
2019-02-14T05:16:40.977Z,102714.25
2019-02-14T05:19:11.306Z,102706.28
2019-02-14T05:21:41.556Z,102708.52
2019-02-14T05:24:11.842Z,102709.84
2019-02-14T05:26:42.105Z,102712.05
2019-02-14T05:29:12.364Z,102718.23
2019-02-14T05:31:42.665Z,102718.70
2019-02-14T05:34:12.879Z,102713.38
2019-02-14T05:36:43.129Z,102720.02
2019-02-14T05:39:13.408Z,102718.27
2019-02-14T05:41:45.234Z,102720.47
2019-02-14T05:44:15.604Z,102731.09
2019-02-14T05:46:45.872Z,102728.89
2019-02-14T05:49:16.126Z,102724.00
2019-02-14T05:51:46.385Z,102731.98
2019-02-14T05:54:16.653Z,102726.64
2019-02-14T05:56:46.945Z,102727.97
2019-02-14T05:59:17.205Z,102741.68
2019-02-14T06:01:47.445Z,102734.16
2019-02-14T06:04:17.707Z,102735.91
2019-02-14T06:06:47.983Z,102747.45
2019-02-14T06:09:18.274Z,102750.98
2019-02-14T06:11:48.528Z,102759.84
2019-02-14T06:14:18.866Z,102757.15
2019-02-14T06:16:49.150Z,102765.13
2019-02-14T06:19:19.425Z,102770.88
2019-02-14T06:21:49.734Z,102779.72
2019-02-14T06:24:21.060Z,102777.06
2019-02-14T06:26:51.315Z,102781.05
2019-02-14T06:29:21.584Z,102782.83
2019-02-14T06:31:51.840Z,102789.48
2019-02-14T06:34:22.125Z,102795.67
2019-02-14T06:36:52.391Z,102802.31
2019-02-14T06:39:22.714Z,102800.08
2019-02-14T06:41:52.980Z,102790.33
2019-02-14T06:44:23.289Z,102802.30
2019-02-14T06:46:53.563Z,102805.83
2019-02-14T06:49:23.822Z,102809.36
2019-02-14T06:51:56.860Z,102813.77
2019-02-14T06:54:27.127Z,102820.87
2019-02-14T06:56:57.389Z,102814.68
2019-02-14T06:59:27.644Z,102802.72
2019-02-14T07:01:57.896Z,102812.48
2019-02-14T07:04:28.149Z,102816.44
2019-02-14T07:06:58.397Z,102816.01
2019-02-14T07:09:28.674Z,102812.89
2019-02-14T07:11:58.948Z,102812.05
2019-02-14T07:14:30.000Z,102812.02
2019-02-14T07:17:00.299Z,102808.47
2019-02-14T07:19:32.150Z,102808.89
2019-02-14T07:22:02.445Z,102809.77
2019-02-14T07:24:32.704Z,102808.45
2019-02-14T07:27:03.067Z,102800.89
2019-02-14T07:29:33.368Z,102808.42
2019-02-14T07:32:04.737Z,102814.62
2019-02-14T07:34:34.982Z,102807.97
2019-02-14T07:37:05.265Z,102811.90
2019-02-14T07:39:35.550Z,102807.03
2019-02-14T07:42:05.890Z,102807.04
2019-02-14T07:44:36.163Z,102812.78
2019-02-14T07:47:06.757Z,102807.01
2019-02-14T07:49:37.033Z,102811.84
2019-02-14T07:52:07.304Z,102825.56
2019-02-14T07:54:37.592Z,102828.23
2019-02-14T07:57:07.834Z,102834.88
2019-02-14T07:59:38.170Z,102835.33
2019-02-14T08:02:08.445Z,102849.45
2019-02-14T08:04:38.719Z,102851.17
2019-02-14T08:07:09.123Z,102866.23
2019-02-14T08:09:39.399Z,102863.99
2019-02-14T08:12:09.719Z,102872.43
2019-02-14T08:14:40.794Z,102864.87
2019-02-14T08:17:11.031Z,102855.09
2019-02-14T08:19:41.310Z,102843.97
2019-02-14T08:22:11.640Z,102836.44
2019-02-14T08:24:42.079Z,102840.05
2019-02-14T08:27:12.366Z,102840.43
2019-02-14T08:29:42.629Z,102847.08
2019-02-14T08:32:13.044Z,102848.38
2019-02-14T08:34:43.403Z,102847.08
2019-02-14T08:37:13.663Z,102845.72
2019-02-14T08:39:43.913Z,102848.80
2019-02-14T08:42:19.304Z,102843.39
2019-02-14T08:44:50.967Z,102852.25
2019-02-14T08:47:24.369Z,102858.91
2019-02-14T08:49:56.807Z,102867.27
2019-02-14T08:52:27.119Z,102867.14
2019-02-14T08:54:57.415Z,102872.39
2019-02-14T08:57:27.695Z,102850.20
2019-02-14T09:00:01.372Z,102851.44
2019-02-14T09:02:32.048Z,102845.23
2019-02-14T09:05:02.343Z,102836.27
2019-02-14T09:07:32.599Z,102827.00
2019-02-14T09:10:02.871Z,102831.75
2019-02-14T09:12:33.122Z,102822.06
2019-02-14T09:15:03.858Z,102829.60
2019-02-14T09:17:34.131Z,102823.09
2019-02-14T09:20:06.695Z,102823.51
2019-02-14T09:22:36.969Z,102816.84
2019-02-14T09:25:08.017Z,102804.92
2019-02-14T09:27:38.315Z,102813.87
2019-02-14T09:30:12.504Z,102818.28
2019-02-14T09:32:44.067Z,102820.53
2019-02-14T09:35:14.321Z,102815.11
2019-02-14T09:37:44.612Z,102816.95
2019-02-14T09:40:18.314Z,102819.61
2019-02-14T09:42:48.636Z,102825.71
2019-02-14T09:45:18.971Z,102825.70
2019-02-14T09:47:49.363Z,102831.81
2019-02-14T09:50:19.619Z,102822.84
2019-02-14T09:52:49.909Z,102825.95
2019-02-14T09:55:20.255Z,102832.94
2019-02-14T09:57:50.538Z,102844.06
2019-02-14T10:00:20.849Z,102853.28
2019-02-14T10:02:51.117Z,102852.83
2019-02-14T10:05:21.378Z,102858.97
2019-02-14T10:07:51.788Z,102863.43
2019-02-14T10:10:23.636Z,102861.10
2019-02-14T10:12:55.535Z,102860.19
2019-02-14T10:15:28.838Z,102856.97
2019-02-14T10:17:59.116Z,102859.36
2019-02-14T10:20:29.360Z,102859.77
2019-02-14T10:22:59.625Z,102856.17
2019-02-14T10:25:29.898Z,102849.97
2019-02-14T10:28:00.137Z,102853.69
2019-02-14T10:30:30.459Z,102855.90
2019-02-14T10:33:00.824Z,102848.41
2019-02-14T10:35:31.096Z,102845.28
2019-02-14T10:38:01.383Z,102845.35
2019-02-14T10:40:31.631Z,102847.44
2019-02-14T10:43:01.931Z,102842.51
2019-02-14T10:45:32.192Z,102845.88
2019-02-14T10:48:02.454Z,102843.63
2019-02-14T10:50:32.718Z,102847.20
2019-02-14T10:53:03.245Z,102847.61
2019-02-14T10:55:33.504Z,102854.22
2019-02-14T10:58:03.765Z,102851.53
2019-02-14T11:00:34.030Z,102858.22
2019-02-14T11:03:04.289Z,102855.08
2019-02-14T11:05:35.646Z,102849.64
2019-02-14T11:08:06.046Z,102844.77
2019-02-14T11:10:36.305Z,102842.22
2019-02-14T11:13:06.560Z,102837.27
2019-02-14T11:15:36.838Z,102832.77
2019-02-14T11:18:07.123Z,102826.98
2019-02-14T11:20:37.380Z,102829.73
2019-02-14T11:23:07.666Z,102833.87
2019-02-14T11:25:40.291Z,102836.67
2019-02-14T11:28:10.520Z,102845.23
2019-02-14T11:30:41.439Z,102843.03
2019-02-14T11:33:11.741Z,102838.02
2019-02-14T11:35:43.105Z,102836.57
2019-02-14T11:38:13.369Z,102844.95
2019-02-14T11:40:43.613Z,102855.61
2019-02-14T11:43:13.854Z,102854.05
2019-02-14T11:45:44.112Z,102855.83
2019-02-14T11:48:14.375Z,102854.06
2019-02-14T11:50:44.630Z,102844.45
2019-02-14T11:53:14.909Z,102841.88
2019-02-14T11:55:46.116Z,102845.37
2019-02-14T11:58:16.374Z,102847.05
2019-02-14T12:00:46.622Z,102850.28
2019-02-14T12:03:16.883Z,102847.16
2019-02-14T12:05:47.218Z,102845.44
2019-02-14T12:08:17.492Z,102852.31
2019-02-14T12:10:47.742Z,102864.96
2019-02-14T12:13:19.074Z,102863.45
2019-02-14T12:15:49.425Z,102867.66
2019-02-14T12:18:24.110Z,102881.10
2019-02-14T12:20:54.462Z,102874.72
2019-02-14T12:23:24.710Z,102877.72
2019-02-14T12:25:57.676Z,102875.91
2019-02-14T12:28:27.955Z,102870.25
2019-02-14T12:30:58.233Z,102873.12
2019-02-14T12:33:28.624Z,102881.39
2019-02-14T12:35:58.888Z,102873.05
2019-02-14T12:38:29.141Z,102878.23
2019-02-14T12:40:59.390Z,102875.46
2019-02-14T12:43:29.633Z,102862.31
2019-02-14T12:45:59.879Z,102867.72
2019-02-14T12:48:30.137Z,102857.56
2019-02-14T12:51:00.500Z,102860.28
2019-02-14T12:53:31.733Z,102858.03
2019-02-14T12:56:02.010Z,102863.35
2019-02-14T12:58:32.242Z,102858.37
2019-02-14T13:01:02.491Z,102859.63
2019-02-14T13:03:32.762Z,102849.38
2019-02-14T13:06:03.106Z,102848.91
2019-02-14T13:08:33.355Z,102842.18
2019-02-14T13:11:03.638Z,102840.78
2019-02-14T13:13:33.918Z,102840.11
2019-02-14T13:16:04.171Z,102837.89
2019-02-14T13:18:34.443Z,102842.30
2019-02-14T13:21:04.729Z,102832.08
2019-02-14T13:23:34.979Z,102836.56
2019-02-14T13:26:05.247Z,102829.45
2019-02-14T13:28:35.544Z,102828.69
2019-02-14T13:31:05.887Z,102828.30
2019-02-14T13:33:36.159Z,102828.82
2019-02-14T13:36:06.478Z,102837.69
2019-02-14T13:38:36.748Z,102831.89
2019-02-14T13:41:07.018Z,102836.41
2019-02-14T13:43:37.276Z,102826.23
2019-02-14T13:46:07.602Z,102830.63
2019-02-14T13:48:37.893Z,102834.22
2019-02-14T13:51:08.320Z,102838.23
2019-02-14T13:53:38.585Z,102835.54
2019-02-14T13:56:08.861Z,102829.23
2019-02-14T13:58:39.221Z,102831.95
2019-02-14T14:01:09.479Z,102823.48
2019-02-14T14:03:39.750Z,102814.77
2019-02-14T14:06:10.226Z,102819.61
2019-02-14T14:08:40.481Z,102808.08
2019-02-14T14:11:10.762Z,102818.33
2019-02-14T14:13:41.032Z,102827.64
2019-02-14T14:16:11.302Z,102827.21
2019-02-14T14:18:42.354Z,102819.66
2019-02-14T14:21:12.691Z,102817.41
2019-02-14T14:23:42.951Z,102822.78
2019-02-14T14:26:13.224Z,102816.17
2019-02-14T14:28:43.472Z,102810.88
2019-02-14T14:31:13.756Z,102816.23
2019-02-14T14:33:44.047Z,102822.44
2019-02-14T14:36:14.378Z,102820.22
2019-02-14T14:38:44.621Z,102825.66
2019-02-14T14:41:14.979Z,102827.05
2019-02-14T14:43:46.940Z,102835.95
2019-02-14T14:46:21.638Z,102836.37
2019-02-14T14:48:51.899Z,102825.66
2019-02-14T14:51:23.991Z,102819.05
2019-02-14T14:53:54.344Z,102819.56
2019-02-14T14:56:24.958Z,102816.49
2019-02-14T14:58:55.442Z,102822.73
2019-02-14T15:01:25.726Z,102821.86
2019-02-14T15:04:02.843Z,102831.64
2019-02-14T15:06:42.589Z,102828.53
2019-02-14T15:09:14.047Z,102821.91
2019-02-14T15:11:44.649Z,102812.19
2019-02-14T15:14:15.243Z,102813.14
2019-02-14T15:16:45.899Z,102814.48
2019-02-14T15:19:16.669Z,102815.44
2019-02-14T15:21:47.048Z,102812.78
2019-02-14T15:24:17.287Z,102814.14
2019-02-14T15:26:48.238Z,102807.95
2019-02-14T15:29:18.596Z,102808.41
2019-02-14T15:31:48.921Z,102813.81
2019-02-14T15:34:19.198Z,102812.03
2019-02-14T15:36:51.694Z,102809.40
2019-02-14T15:39:22.367Z,102805.03
2019-02-14T15:41:53.159Z,102812.14
2019-02-14T15:44:23.445Z,102811.68
2019-02-14T15:46:53.773Z,102809.05
2019-02-14T15:49:25.423Z,102808.60
2019-02-14T15:51:57.585Z,102809.06
2019-02-14T15:54:27.952Z,102812.17
2019-02-14T15:56:58.325Z,102811.75
2019-02-14T15:59:28.940Z,102814.44
2019-02-14T16:01:59.373Z,102813.53
2019-02-14T16:04:31.369Z,102817.53
2019-02-14T16:07:01.691Z,102817.10
2019-02-14T16:09:32.616Z,102824.20
2019-02-14T16:12:02.985Z,102823.33
2019-02-14T16:14:33.292Z,102822.42
2019-02-14T16:17:04.612Z,102824.66
2019-02-14T16:19:36.522Z,102831.77
2019-02-14T16:22:06.993Z,102832.22
2019-02-14T16:24:39.193Z,102835.33
2019-02-14T16:27:09.627Z,102828.73
2019-02-14T16:33:25.859Z,102828.30
2019-02-14T16:35:56.458Z,102833.20
2019-02-14T16:38:26.932Z,102836.31
2019-02-14T16:40:57.220Z,102831.45
2019-02-14T16:43:27.700Z,102834.98
2019-02-14T16:45:58.541Z,102828.80
2019-02-14T16:48:29.087Z,102824.82
2019-02-14T17:02:40.771Z,102823.52
2019-02-14T17:05:27.787Z,102825.73
2019-02-14T17:11:29.017Z,102835.94
2019-02-14T17:17:40.925Z,102843.06
2019-02-14T17:26:56.309Z,102858.09
2019-02-14T17:29:26.795Z,102851.02
2019-02-14T17:31:58.703Z,102850.13
2019-02-14T17:34:29.111Z,102851.04
2019-02-14T17:37:01.615Z,102831.98
2019-02-14T17:39:32.575Z,102837.30
2019-02-14T17:42:05.427Z,102830.64
2019-02-14T17:44:38.767Z,102823.13
2019-02-14T17:47:10.456Z,102820.46
2019-02-14T17:49:42.154Z,102827.55
2019-02-14T17:52:12.766Z,102820.03
2019-02-14T17:54:43.694Z,102819.14
2019-02-14T17:57:13.902Z,102812.94
2019-02-14T17:59:44.533Z,102812.94
2019-02-14T18:02:16.188Z,102818.71
2019-02-14T18:04:46.459Z,102819.58
2019-02-14T18:07:16.740Z,102823.13
2019-02-14T18:09:47.164Z,102819.14
2019-02-14T18:12:18.452Z,102822.69
2019-02-14T18:14:48.792Z,102821.36
2019-02-14T18:17:19.830Z,102818.25
2019-02-14T18:19:51.861Z,102814.27
2019-02-14T18:22:22.306Z,102824.45
2019-02-14T18:24:53.095Z,102822.23
2019-02-14T18:27:23.492Z,102827.55
2019-02-14T18:29:53.828Z,102827.15
2019-02-14T18:32:27.843Z,102831.14
2019-02-14T18:34:59.167Z,102836.44
2019-02-14T18:37:29.407Z,102840.00
2019-02-14T18:39:59.865Z,102829.38
2019-02-14T18:42:30.454Z,102836.47
2019-02-14T18:45:00.848Z,102832.02
2019-02-14T18:47:39.300Z,102832.92
2019-02-14T18:50:03.271Z,102829.38
2019-02-14T18:52:33.637Z,102835.59
2019-02-14T18:55:04.262Z,102828.95
2019-02-14T18:57:34.542Z,102829.84
2019-02-14T19:00:17.046Z,102825.40
2019-02-14T19:02:47.783Z,102822.31
2019-02-14T19:05:18.191Z,102831.61
2019-02-14T19:07:48.806Z,102829.41
2019-02-14T19:10:19.491Z,102828.06
2019-02-14T19:12:49.998Z,102833.80
2019-02-14T19:15:20.577Z,102821.44
2019-02-14T19:17:52.559Z,102813.45
2019-02-14T19:20:24.619Z,102825.39
2019-02-14T19:22:56.045Z,102823.66
2019-02-14T19:25:29.544Z,102818.78
2019-02-14T19:27:59.597Z,102820.11
2019-02-14T19:30:30.702Z,102825.00
2019-02-14T19:33:02.597Z,102823.67
2019-02-14T19:35:32.870Z,102834.30
2019-02-14T19:38:03.496Z,102832.95
2019-02-14T19:40:35.512Z,102832.53
2019-02-14T19:43:05.804Z,102834.72
2019-02-14T19:45:36.940Z,102827.64
2019-02-14T19:48:07.564Z,102820.55
2019-02-14T19:50:39.682Z,102818.36
2019-02-14T19:53:13.281Z,102809.06
2019-02-14T19:59:21.591Z,102807.75
2019-02-14T20:01:52.025Z,102799.77
2019-02-14T20:04:22.387Z,102802.00
2019-02-14T20:06:52.749Z,102796.66
2019-02-14T20:09:23.103Z,102792.68
2019-02-14T20:11:53.377Z,102796.67
2019-02-14T20:14:23.842Z,102788.70
2019-02-14T20:16:55.795Z,102793.59
2019-02-14T20:19:26.546Z,102800.23
2019-02-14T20:21:59.529Z,102798.44
2019-02-14T20:24:32.611Z,102795.78
2019-02-14T20:27:04.671Z,102796.69
2019-02-14T20:29:35.203Z,102804.21
2019-02-14T20:32:05.969Z,102797.57
2019-02-14T20:34:37.415Z,102797.56
2019-02-14T20:37:09.681Z,102785.63
2019-02-14T20:39:40.571Z,102784.31
2019-02-14T20:42:11.672Z,102784.31
2019-02-14T20:44:44.031Z,102779.45
2019-02-14T20:47:14.372Z,102782.52
2019-02-14T20:49:44.636Z,102787.42
2019-02-14T20:52:15.095Z,102789.17
2019-02-14T20:54:46.135Z,102787.42
2019-02-14T20:57:16.407Z,102788.74
2019-02-14T20:59:47.485Z,102791.81
2019-02-14T21:02:18.251Z,102798.46
2019-02-14T21:04:48.633Z,102795.81
2019-02-14T21:07:21.003Z,102804.64
2019-02-14T21:09:51.459Z,102805.09
2019-02-14T21:12:21.822Z,102809.53
2019-02-14T21:14:52.096Z,102813.50
2019-02-14T21:17:22.471Z,102815.25
2019-02-14T21:19:55.644Z,102812.16
2019-02-14T21:22:26.000Z,102809.95
2019-02-14T21:24:57.905Z,102815.73
2019-02-14T21:27:28.408Z,102817.05
2019-02-14T21:30:01.205Z,102827.67
2019-02-14T21:32:31.967Z,102821.48
2019-02-14T21:35:02.710Z,102823.69
2019-02-14T21:37:33.206Z,102815.28
2019-02-14T21:40:11.303Z,102813.52
2019-02-14T21:42:41.579Z,102818.40
2019-02-14T21:45:14.319Z,102821.05
2019-02-14T21:47:45.127Z,102819.67
2019-02-14T21:50:16.102Z,102817.03
2019-02-14T21:52:47.189Z,102817.47
2019-02-14T21:55:17.619Z,102807.30
2019-02-14T21:57:50.252Z,102808.16
2019-02-14T22:00:27.047Z,102804.66
2019-02-14T22:02:57.586Z,102804.22
2019-02-14T22:05:28.074Z,102811.30
2019-02-14T22:07:58.509Z,102806.85
2019-02-14T22:10:28.837Z,102809.52
2019-02-14T22:12:59.210Z,102817.05
2019-02-14T22:15:30.371Z,102817.48
2019-02-14T22:18:01.058Z,102810.39
2019-02-14T22:20:31.329Z,102804.66
2019-02-14T22:23:01.672Z,102813.50
2019-02-14T22:25:31.938Z,102810.39
2019-02-14T22:28:02.346Z,102811.73
2019-02-14T22:30:32.655Z,102809.06
2019-02-14T22:33:03.182Z,102817.92
2019-02-14T22:35:33.689Z,102807.30
2019-02-14T22:38:04.396Z,102810.41
2019-02-14T22:40:34.791Z,102806.42
2019-02-14T22:43:05.130Z,102807.73
2019-02-14T22:45:35.396Z,102808.18
2019-02-14T22:48:05.723Z,102805.95
2019-02-14T22:50:36.172Z,102804.62
2019-02-14T22:53:06.494Z,102808.63
2019-02-14T22:55:36.763Z,102809.48
2019-02-14T22:58:07.302Z,102809.52
2019-02-14T23:00:40.512Z,102806.86
2019-02-14T23:03:11.893Z,102812.13
2019-02-14T23:05:42.210Z,102806.39
2019-02-14T23:08:12.565Z,102798.87
2019-02-14T23:10:43.138Z,102794.44
2019-02-14T23:13:13.529Z,102807.23
2019-02-14T23:15:43.836Z,102805.41
2019-02-14T23:18:14.144Z,102808.91
2019-02-14T23:20:45.492Z,102815.06
2019-02-14T23:23:15.884Z,102822.98
2019-02-14T23:25:46.986Z,102823.38
2019-02-14T23:28:17.301Z,102817.63
2019-02-14T23:30:47.581Z,102820.65
2019-02-14T23:33:17.880Z,102820.14
2019-02-14T23:35:48.154Z,102820.98
2019-02-14T23:38:18.406Z,102819.16
2019-02-14T23:40:48.741Z,102814.70
2019-02-14T23:43:19.031Z,102806.73
2019-02-14T23:45:49.439Z,102809.36
2019-02-14T23:48:19.898Z,102815.48
2019-02-14T23:50:50.152Z,102819.88
2019-02-14T23:53:20.531Z,102816.33
2019-02-14T23:55:50.808Z,102816.27
2019-02-14T23:58:21.583Z,102815.36
